Schedule Details


Flight Number: CTN4466
Departure: Cilipi (LDDU) at 07:05
Arrival: Zurich (LSZH) at 09:20
Route: AMUGO L611 UVODI L862 SABAD DCT GIMIX DCT ERKIR L608 KPT L856 NEGRA

Weather Information
LDDU 172300Z 09005KT CAVOK 20/17 Q1018
LSZH 172250Z AUTO 30004KT CAVOK 19/16 Q1014 NOSIG
Schedule Frequency

Route Map